Time;durP1;ratioP1;P1;durP2;ratioP2;P2;SDS_P1;SDS_P2;PMS_P1;PMS_P2;Temp;Humidity;BMP_temperature;BMP_pressure;BME280_temperature;BME280_humidity;BME280_pressure;Samples;Min_cycle;Max_cycle;Signal;HPM_P1;HPM_P2
2022/05/01 00:00:06;;;;;;;57.93;2.40;;;;;;;;;;5094044;28;20561;-74
2022/05/01 00:02:33;;;;;;;57.97;2.70;;;;;;;;;;5093695;28;20521;-74
2022/05/01 00:05:01;;;;;;;57.77;2.50;;;;;;;;;;5093695;28;20892;-74
2022/05/01 00:07:28;;;;;;;57.83;2.57;;;;;;;;;;5093174;28;20446;-74
2022/05/01 00:09:56;;;;;;;57.90;2.60;;;;;;;;;;5093371;28;20561;-75
2022/05/01 00:12:23;;;;;;;57.83;2.30;;;;;;;;;;5093247;28;20492;-74
2022/05/01 00:14:51;;;;;;;57.67;3.00;;;;;;;;;;5093580;28;20477;-74
2022/05/01 00:17:18;;;;;;;58.07;2.90;;;;;;;;;;5092674;28;20455;-75
2022/05/01 00:19:45;;;;;;;58.00;2.70;;;;;;;;;;5093220;28;20556;-74
2022/05/01 00:22:12;;;;;;;58.30;3.10;;;;;;;;;;5093158;28;20540;-74
2022/05/01 00:24:40;;;;;;;57.97;2.40;;;;;;;;;;5093400;28;20457;-74
2022/05/01 00:27:08;;;;;;;57.77;2.60;;;;;;;;;;5093002;28;20896;-75
2022/05/01 00:29:35;;;;;;;58.00;2.63;;;;;;;;;;5093149;28;20498;-74
2022/05/01 00:32:04;;;;;;;59.40;4.07;;;;;;;;;;5093212;28;20909;-74
2022/05/01 00:37:17;;;;;;;57.90;2.80;;;;;;;;;;5092357;28;20471;-74
2022/05/01 00:39:44;;;;;;;58.00;3.47;;;;;;;;;;5093396;28;20462;-74
2022/05/01 00:42:12;;;;;;;57.83;2.70;;;;;;;;;;5092892;28;20442;-74
2022/05/01 00:44:40;;;;;;;57.77;2.60;;;;;;;;;;5092980;28;20537;-74
2022/05/01 00:47:07;;;;;;;58.07;3.17;;;;;;;;;;5092445;28;20454;-74
2022/05/01 00:49:34;;;;;;;57.93;3.50;;;;;;;;;;5092246;28;20477;-74
2022/05/01 00:52:02;;;;;;;57.90;2.47;;;;;;;;;;5092856;28;20861;-74
2022/05/01 00:54:30;;;;;;;57.77;2.30;;;;;;;;;;5092506;28;20481;-74
2022/05/01 00:56:59;;;;;;;57.67;2.50;;;;;;;;;;5092780;28;20861;-74
2022/05/01 00:59:36;;;;;;;57.77;2.63;;;;;;;;;;5091823;28;20890;-74
2022/05/01 01:02:05;;;;;;;57.73;2.40;;;;;;;;;;5092750;28;20434;-74
2022/05/01 01:04:32;;;;;;;57.77;2.90;;;;;;;;;;5092352;28;20530;-74
2022/05/01 01:06:59;;;;;;;57.80;2.83;;;;;;;;;;5092435;28;20487;-74
2022/05/01 01:09:26;;;;;;;57.77;2.40;;;;;;;;;;5091757;28;20546;-74
2022/05/01 01:14:36;;;;;;;57.90;2.60;;;;;;;;;;5091861;28;20434;-74
2022/05/01 01:17:04;;;;;;;57.77;2.60;;;;;;;;;;5092529;28;20443;-74
2022/05/01 01:19:31;;;;;;;58.07;2.93;;;;;;;;;;5091815;28;20768;-74
2022/05/01 01:22:00;;;;;;;58.00;2.93;;;;;;;;;;5092429;28;20472;-74
2022/05/01 01:24:28;;;;;;;57.63;2.50;;;;;;;;;;5092019;28;20536;-74
2022/05/01 01:26:56;;;;;;;57.87;2.57;;;;;;;;;;5092022;28;20453;-75
2022/05/01 01:32:09;;;;;;;57.83;2.37;;;;;;;;;;5092128;28;20497;-74
2022/05/01 01:34:37;;;;;;;57.93;2.70;;;;;;;;;;5092007;28;20445;-74
2022/05/01 01:37:06;;;;;;;58.00;2.60;;;;;;;;;;5091977;28;20451;-74
2022/05/01 01:39:34;;;;;;;57.87;3.10;;;;;;;;;;5091481;28;20470;-74
2022/05/01 01:42:05;;;;;;;57.80;2.60;;;;;;;;;;5092164;28;20890;-74
2022/05/01 01:44:37;;;;;;;58.03;2.87;;;;;;;;;;5092088;28;20476;-74
2022/05/01 01:47:04;;;;;;;57.73;2.50;;;;;;;;;;5088865;28;20453;-74
2022/05/01 01:49:31;;;;;;;57.77;3.17;;;;;;;;;;5091095;28;20482;-74
2022/05/01 01:51:58;;;;;;;57.97;2.70;;;;;;;;;;5091847;28;20533;-74
2022/05/01 01:54:28;;;;;;;58.10;2.90;;;;;;;;;;5091892;28;20443;-74
2022/05/01 01:56:55;;;;;;;57.97;2.50;;;;;;;;;;5091817;28;20458;-74
2022/05/01 01:59:22;;;;;;;58.60;4.70;;;;;;;;;;5090886;28;20468;-74
2022/05/01 02:01:49;;;;;;;57.63;2.30;;;;;;;;;;5092107;28;20450;-74
2022/05/01 02:04:17;;;;;;;58.10;3.30;;;;;;;;;;5091660;28;20456;-74
2022/05/01 02:06:44;;;;;;;57.67;2.57;;;;;;;;;;5091939;28;20450;-74
2022/05/01 02:09:12;;;;;;;57.70;2.50;;;;;;;;;;5091056;28;20488;-74
2022/05/01 02:11:41;;;;;;;57.80;2.70;;;;;;;;;;5092422;28;20446;-74
2022/05/01 02:14:10;;;;;;;57.67;2.27;;;;;;;;;;5095478;28;20481;-74
2022/05/01 02:16:37;;;;;;;57.70;2.50;;;;;;;;;;5095976;28;20496;-74
2022/05/01 02:19:04;;;;;;;57.70;2.83;;;;;;;;;;5094942;28;20468;-74
2022/05/01 02:21:37;;;;;;;57.93;2.60;;;;;;;;;;5095672;28;20533;-74
2022/05/01 02:24:06;;;;;;;57.67;2.50;;;;;;;;;;5095696;28;20477;-74
2022/05/01 02:26:35;;;;;;;57.87;2.30;;;;;;;;;;5095504;28;20541;-74
2022/05/01 02:29:04;;;;;;;57.97;2.47;;;;;;;;;;5094712;28;21012;-74
2022/05/01 02:31:31;;;;;;;58.40;4.20;;;;;;;;;;5095564;28;20541;-74
2022/05/01 02:33:59;;;;;;;57.67;2.60;;;;;;;;;;5095430;28;20491;-74
2022/05/01 02:36:26;;;;;;;57.87;2.50;;;;;;;;;;5095432;28;20478;-74
2022/05/01 02:38:53;;;;;;;58.30;3.67;;;;;;;;;;5094434;28;20473;-74
2022/05/01 02:41:20;;;;;;;57.73;2.83;;;;;;;;;;5095540;28;20541;-74
2022/05/01 02:43:48;;;;;;;57.50;2.40;;;;;;;;;;5095357;28;20457;-74
2022/05/01 02:46:16;;;;;;;57.80;2.53;;;;;;;;;;5095139;28;20457;-74
2022/05/01 02:48:43;;;;;;;57.77;2.53;;;;;;;;;;5094394;28;20446;-74
2022/05/01 02:51:10;;;;;;;57.97;2.60;;;;;;;;;;5094988;28;20464;-74
2022/05/01 02:53:38;;;;;;;58.07;2.50;;;;;;;;;;5094846;28;20508;-74
2022/05/01 02:56:06;;;;;;;57.67;2.23;;;;;;;;;;5095006;28;20448;-74
2022/05/01 02:58:33;;;;;;;57.90;2.70;;;;;;;;;;5094396;28;20477;-74
2022/05/01 03:01:01;;;;;;;57.77;2.30;;;;;;;;;;5095015;28;20499;-74
2022/05/01 03:03:29;;;;;;;57.77;2.40;;;;;;;;;;5094941;28;20446;-74
2022/05/01 03:05:58;;;;;;;57.57;2.50;;;;;;;;;;5094771;28;20862;-74
2022/05/01 03:08:27;;;;;;;57.57;2.37;;;;;;;;;;5094351;28;20485;-74
2022/05/01 03:10:54;;;;;;;57.87;2.70;;;;;;;;;;5094677;28;20543;-74
2022/05/01 03:13:21;;;;;;;57.67;2.27;;;;;;;;;;5094459;28;21033;-74
2022/05/01 03:15:48;;;;;;;57.83;2.90;;;;;;;;;;5094683;28;20446;-74
2022/05/01 03:23:47;;;;;;;57.87;2.60;;;;;;;;;;5094003;28;20991;-74
2022/05/01 03:26:16;;;;;;;57.77;2.60;;;;;;;;;;5094564;28;20726;-74
2022/05/01 03:28:43;;;;;;;57.77;2.60;;;;;;;;;;5093677;28;20469;-74
2022/05/01 03:31:11;;;;;;;58.07;3.03;;;;;;;;;;5094989;28;20461;-74
2022/05/01 03:33:38;;;;;;;57.93;3.10;;;;;;;;;;5094630;28;20517;-74
2022/05/01 03:36:07;;;;;;;57.73;2.60;;;;;;;;;;5094535;28;20871;-74
2022/05/01 03:38:36;;;;;;;57.87;2.40;;;;;;;;;;5093665;28;20457;-74
2022/05/01 03:41:04;;;;;;;57.73;2.50;;;;;;;;;;5094123;28;20548;-74
2022/05/01 03:43:32;;;;;;;57.67;2.37;;;;;;;;;;5093878;28;20882;-74
2022/05/01 03:45:59;;;;;;;58.03;2.70;;;;;;;;;;5094267;28;20827;-74
2022/05/01 03:48:27;;;;;;;57.87;2.47;;;;;;;;;;5093493;28;20442;-74
2022/05/01 03:50:54;;;;;;;57.83;2.90;;;;;;;;;;5093825;28;20482;-74
2022/05/01 03:53:24;;;;;;;57.87;3.00;;;;;;;;;;5093820;28;20853;-74
2022/05/01 03:55:51;;;;;;;57.80;2.60;;;;;;;;;;5093898;28;20459;-74
2022/05/01 03:58:19;;;;;;;57.87;2.77;;;;;;;;;;5093051;28;20976;-74
2022/05/01 04:00:47;;;;;;;58.07;3.40;;;;;;;;;;5093644;28;21040;-74
2022/05/01 04:03:15;;;;;;;57.87;3.17;;;;;;;;;;5093808;28;20446;-74
2022/05/01 04:05:42;;;;;;;57.80;2.60;;;;;;;;;;5093556;28;20969;-74
2022/05/01 04:08:09;;;;;;;57.87;3.00;;;;;;;;;;5092811;28;20447;-74
2022/05/01 04:10:38;;;;;;;58.17;2.77;;;;;;;;;;5092868;28;21006;-74
2022/05/01 04:13:06;;;;;;;57.67;2.63;;;;;;;;;;5093549;28;20485;-74
2022/05/01 04:15:34;;;;;;;57.90;2.30;;;;;;;;;;5093588;28;20461;-74
2022/05/01 04:18:02;;;;;;;58.10;3.40;;;;;;;;;;5092895;28;20533;-74
2022/05/01 04:20:30;;;;;;;57.97;2.90;;;;;;;;;;5093343;28;20470;-74
2022/05/01 04:22:57;;;;;;;57.93;2.43;;;;;;;;;;5093254;28;20461;-74
2022/05/01 04:25:26;;;;;;;57.80;2.60;;;;;;;;;;5093196;28;20857;-74
2022/05/01 04:27:59;;;;;;;58.10;2.70;;;;;;;;;;5092756;28;20456;-74
2022/05/01 04:30:27;;;;;;;58.20;3.60;;;;;;;;;;5093226;28;20468;-74
2022/05/01 04:32:54;;;;;;;57.77;2.60;;;;;;;;;;5092987;28;20478;-74
2022/05/01 04:35:22;;;;;;;58.17;3.73;;;;;;;;;;5092281;28;20551;-74
2022/05/01 04:37:50;;;;;;;57.83;2.90;;;;;;;;;;5092057;28;20454;-74
2022/05/01 04:40:17;;;;;;;57.67;2.57;;;;;;;;;;5093146;28;20469;-74
2022/05/01 04:42:44;;;;;;;57.70;2.43;;;;;;;;;;5092819;28;20458;-74
2022/05/01 04:45:13;;;;;;;58.07;3.10;;;;;;;;;;5093033;28;20460;-74
2022/05/01 04:47:40;;;;;;;58.00;3.37;;;;;;;;;;5092350;28;20829;-74
2022/05/01 04:50:08;;;;;;;58.60;4.60;;;;;;;;;;5092619;28;20569;-74
2022/05/01 04:52:38;;;;;;;57.67;2.40;;;;;;;;;;5092597;28;20537;-74
2022/05/01 04:55:05;;;;;;;57.63;2.57;;;;;;;;;;5092645;28;20935;-74
2022/05/01 04:57:32;;;;;;;57.83;2.50;;;;;;;;;;5092113;28;20537;-74
2022/05/01 05:00:00;;;;;;;57.67;2.20;;;;;;;;;;5092775;28;20470;-74
2022/05/01 05:02:36;;;;;;;58.80;4.50;;;;;;;;;;5092509;28;20447;-74
2022/05/01 05:05:04;;;;;;;57.80;2.60;;;;;;;;;;5092561;28;20453;-74
2022/05/01 05:07:31;;;;;;;57.70;2.73;;;;;;;;;;5091915;28;20450;-74
2022/05/01 05:09:57;;;;;;;58.17;3.47;;;;;;;;;;5092616;28;20470;-74
2022/05/01 05:12:25;;;;;;;57.77;2.80;;;;;;;;;;5092518;28;20445;-74
2022/05/01 05:14:54;;;;;;;57.93;2.50;;;;;;;;;;5092222;28;21058;-74
2022/05/01 05:17:22;;;;;;;57.70;2.90;;;;;;;;;;5091478;28;20446;-74
2022/05/01 05:19:50;;;;;;;57.80;2.70;;;;;;;;;;5092442;28;20553;-74
2022/05/01 05:22:18;;;;;;;57.87;2.60;;;;;;;;;;5092357;28;20470;-74
2022/05/01 05:24:45;;;;;;;58.00;3.30;;;;;;;;;;5092389;28;20470;-74
2022/05/01 05:27:12;;;;;;;57.67;2.50;;;;;;;;;;5091509;28;20445;-74
2022/05/01 05:29:39;;;;;;;57.80;2.47;;;;;;;;;;5092117;28;20519;-74
2022/05/01 05:32:07;;;;;;;57.80;2.37;;;;;;;;;;5092547;28;20444;-74
2022/05/01 05:34:35;;;;;;;57.70;2.40;;;;;;;;;;5091935;28;20569;-74
2022/05/01 05:37:03;;;;;;;57.83;2.57;;;;;;;;;;5092177;28;20446;-74
2022/05/01 05:39:31;;;;;;;58.60;2.90;;;;;;;;;;5091631;28;20911;-74
2022/05/01 05:41:58;;;;;;;57.57;2.53;;;;;;;;;;5092121;28;20450;-74
2022/05/01 05:44:25;;;;;;;57.67;2.60;;;;;;;;;;5091815;28;20452;-74
2022/05/01 05:46:52;;;;;;;57.97;3.57;;;;;;;;;;5091794;28;20539;-74
2022/05/01 05:49:20;;;;;;;57.57;2.23;;;;;;;;;;5091167;28;20833;-74
2022/05/01 05:51:47;;;;;;;57.80;3.17;;;;;;;;;;5091705;28;20962;-74
2022/05/01 05:54:15;;;;;;;57.53;2.70;;;;;;;;;;5091689;28;20478;-74
2022/05/01 05:56:42;;;;;;;58.10;3.37;;;;;;;;;;5091905;28;20896;-74
2022/05/01 05:59:10;;;;;;;58.00;2.70;;;;;;;;;;5091039;28;20557;-74
2022/05/01 06:01:38;;;;;;;58.10;4.20;;;;;;;;;;5091647;28;20496;-74
2022/05/01 06:04:05;;;;;;;57.50;2.30;;;;;;;;;;5091866;28;20499;-75
2022/05/01 06:06:33;;;;;;;58.37;3.37;;;;;;;;;;5091783;28;20529;-74
2022/05/01 06:09:00;;;;;;;57.67;2.70;;;;;;;;;;5090950;28;20470;-74
2022/05/01 06:11:29;;;;;;;57.80;2.70;;;;;;;;;;5091521;28;20448;-74
2022/05/01 06:13:56;;;;;;;57.70;2.47;;;;;;;;;;5091726;28;20596;-74
2022/05/01 06:16:23;;;;;;;57.47;2.40;;;;;;;;;;5091443;28;20452;-75
2022/05/01 06:18:51;;;;;;;58.17;4.13;;;;;;;;;;5090894;28;20452;-75
2022/05/01 06:21:18;;;;;;;58.30;4.50;;;;;;;;;;5091811;28;20541;-75
2022/05/01 06:23:48;;;;;;;58.90;3.90;;;;;;;;;;5091599;28;20477;-74
2022/05/01 06:26:15;;;;;;;57.73;2.27;;;;;;;;;;5091605;28;20450;-74
2022/05/01 06:28:43;;;;;;;57.77;2.60;;;;;;;;;;5090913;28;20451;-75
2022/05/01 06:31:10;;;;;;;57.57;2.70;;;;;;;;;;5091550;28;20829;-74
2022/05/01 06:33:39;;;;;;;58.10;3.10;;;;;;;;;;5091447;28;20489;-75
2022/05/01 06:36:07;;;;;;;57.60;2.20;;;;;;;;;;5091602;28;20446;-74
2022/05/01 06:38:35;;;;;;;57.37;2.30;;;;;;;;;;5090443;28;20450;-74
2022/05/01 06:41:03;;;;;;;57.80;2.77;;;;;;;;;;5091636;28;20477;-74
2022/05/01 06:43:30;;;;;;;57.73;2.50;;;;;;;;;;5091581;28;20852;-74
2022/05/01 06:45:59;;;;;;;57.70;2.40;;;;;;;;;;5091544;28;20828;-74
2022/05/01 06:48:26;;;;;;;57.57;2.30;;;;;;;;;;5090505;28;20442;-74
2022/05/01 06:50:54;;;;;;;58.07;3.07;;;;;;;;;;5091118;28;20482;-74
2022/05/01 06:53:21;;;;;;;57.90;2.90;;;;;;;;;;5091107;28;20482;-74
2022/05/01 06:55:49;;;;;;;57.47;2.60;;;;;;;;;;5091246;28;20453;-74
2022/05/01 06:58:16;;;;;;;57.70;2.60;;;;;;;;;;5092122;28;20930;-74
2022/05/01 07:00:45;;;;;;;57.57;2.40;;;;;;;;;;5094837;28;20466;-74
2022/05/01 07:03:13;;;;;;;57.53;2.80;;;;;;;;;;5094880;28;20450;-74
2022/05/01 07:05:40;;;;;;;57.70;2.77;;;;;;;;;;5094769;28;20478;-74
2022/05/01 07:08:08;;;;;;;57.57;2.43;;;;;;;;;;5094305;28;20542;-75
2022/05/01 07:10:35;;;;;;;58.50;4.40;;;;;;;;;;5094836;28;20498;-74
2022/05/01 07:13:02;;;;;;;57.60;2.30;;;;;;;;;;5094786;28;20478;-74
2022/05/01 07:15:32;;;;;;;57.47;2.20;;;;;;;;;;5093523;28;21026;-74
2022/05/01 07:17:59;;;;;;;58.67;4.70;;;;;;;;;;5093862;28;20534;-74
2022/05/01 07:20:29;;;;;;;57.47;2.80;;;;;;;;;;5094449;28;20473;-74
2022/05/01 07:22:56;;;;;;;57.57;3.03;;;;;;;;;;5094611;28;20451;-74
2022/05/01 07:25:23;;;;;;;57.47;2.30;;;;;;;;;;5094684;28;20538;-74
2022/05/01 07:27:50;;;;;;;57.90;2.70;;;;;;;;;;5093891;28;20447;-75
2022/05/01 07:30:17;;;;;;;57.70;2.50;;;;;;;;;;5094268;28;20838;-74
2022/05/01 07:32:45;;;;;;;58.93;3.43;;;;;;;;;;5094164;28;20481;-74
2022/05/01 07:35:12;;;;;;;57.37;2.43;;;;;;;;;;5094138;28;20482;-74
2022/05/01 07:37:40;;;;;;;57.47;2.53;;;;;;;;;;5093781;28;20446;-74
2022/05/01 07:40:09;;;;;;;57.77;2.70;;;;;;;;;;5094232;28;20467;-74
2022/05/01 07:42:36;;;;;;;57.67;2.60;;;;;;;;;;5094140;28;20533;-74
2022/05/01 07:45:04;;;;;;;57.60;2.30;;;;;;;;;;5094170;28;20450;-74
2022/05/01 07:47:31;;;;;;;57.60;2.70;;;;;;;;;;5093292;28;21004;-74
2022/05/01 07:49:58;;;;;;;57.63;2.50;;;;;;;;;;5082923;28;20479;-69
2022/05/01 07:52:26;;;;;;;57.67;2.50;;;;;;;;;;5072527;28;20539;-71
2022/05/01 07:54:55;;;;;;;57.40;2.30;;;;;;;;;;5072337;28;20474;-74
2022/05/01 07:57:26;;;;;;;57.63;2.40;;;;;;;;;;5071387;28;20444;-75
2022/05/01 07:59:53;;;;;;;57.47;2.30;;;;;;;;;;5072203;28;20478;-75
2022/05/01 08:02:20;;;;;;;57.37;2.60;;;;;;;;;;5072406;28;20443;-75
2022/05/01 08:04:47;;;;;;;57.53;2.40;;;;;;;;;;5071975;28;20455;-75
2022/05/01 08:07:15;;;;;;;57.43;2.50;;;;;;;;;;5071930;28;20445;-73
2022/05/01 08:09:42;;;;;;;57.63;2.70;;;;;;;;;;5071864;28;20491;-75
2022/05/01 08:12:11;;;;;;;57.77;2.63;;;;;;;;;;5071957;28;20458;-75
2022/05/01 08:14:41;;;;;;;57.47;2.33;;;;;;;;;;5072041;28;20488;-75
2022/05/01 08:17:08;;;;;;;58.10;2.70;;;;;;;;;;5071575;28;20568;-75
2022/05/01 08:22:20;;;;;;;57.60;2.40;;;;;;;;;;5071908;28;20424;-75
2022/05/01 08:24:47;;;;;;;58.07;3.00;;;;;;;;;;5071370;28;20454;-74
2022/05/01 08:27:16;;;;;;;57.73;2.40;;;;;;;;;;5071866;28;20831;-75
2022/05/01 08:29:43;;;;;;;57.47;2.60;;;;;;;;;;5071328;28;20567;-75
2022/05/01 08:32:10;;;;;;;57.80;2.47;;;;;;;;;;5069366;28;20464;-71
2022/05/01 08:34:38;;;;;;;57.43;2.30;;;;;;;;;;5088853;28;20480;-73
2022/05/01 08:37:05;;;;;;;57.50;2.20;;;;;;;;;;5092405;28;20484;-72
2022/05/01 08:39:32;;;;;;;57.73;2.30;;;;;;;;;;5091669;28;20996;-72
2022/05/01 08:42:00;;;;;;;57.87;2.97;;;;;;;;;;5092054;28;20534;-71
2022/05/01 08:44:32;;;;;;;57.67;2.40;;;;;;;;;;5092144;28;20449;-73
2022/05/01 08:47:16;;;;;;;57.87;2.60;;;;;;;;;;5091241;28;20946;-71
2022/05/01 08:49:44;;;;;;;57.67;2.37;;;;;;;;;;5071162;28;20586;-71
2022/05/01 08:52:12;;;;;;;58.23;4.00;;;;;;;;;;5071183;28;20997;-71
2022/05/01 08:54:39;;;;;;;57.57;2.27;;;;;;;;;;5071019;28;20485;-71
2022/05/01 08:57:06;;;;;;;57.67;2.30;;;;;;;;;;5071643;28;20458;-71
2022/05/01 08:59:36;;;;;;;57.70;2.30;;;;;;;;;;5071297;28;20556;-71
2022/05/01 09:02:03;;;;;;;57.67;2.30;;;;;;;;;;5071875;28;20832;-71
2022/05/01 09:04:31;;;;;;;58.80;4.40;;;;;;;;;;5071743;28;20884;-71
2022/05/01 09:06:58;;;;;;;57.80;2.50;;;;;;;;;;5071755;28;20549;-71
2022/05/01 09:09:25;;;;;;;57.90;3.03;;;;;;;;;;5070586;28;20478;-71
2022/05/01 09:14:40;;;;;;;57.00;2.00;;;;;;;;;;5071270;28;20562;-71
2022/05/01 09:17:14;;;;;;;57.80;2.50;;;;;;;;;;5071263;28;20453;-71
2022/05/01 09:19:41;;;;;;;57.63;2.30;;;;;;;;;;5069993;28;20466;-72
2022/05/01 09:22:08;;;;;;;58.17;3.43;;;;;;;;;;5091751;28;20488;-71
2022/05/01 09:24:36;;;;;;;58.10;3.10;;;;;;;;;;5092078;28;20445;-72
2022/05/01 09:27:03;;;;;;;57.77;2.60;;;;;;;;;;5091452;28;20539;-72
2022/05/01 09:29:34;;;;;;;57.90;2.87;;;;;;;;;;5090590;28;20556;-72
2022/05/01 09:32:03;;;;;;;57.87;2.40;;;;;;;;;;5091248;28;20493;-71
2022/05/01 09:34:32;;;;;;;57.47;2.70;;;;;;;;;;5091081;28;20480;-72
2022/05/01 09:36:59;;;;;;;57.83;2.00;;;;;;;;;;5091398;28;20536;-71
2022/05/01 09:39:27;;;;;;;57.77;2.50;;;;;;;;;;5091117;28;20500;-71
2022/05/01 09:41:55;;;;;;;57.43;2.30;;;;;;;;;;5091735;28;20889;-71
2022/05/01 09:44:23;;;;;;;57.63;2.30;;;;;;;;;;5091955;28;20445;-72
2022/05/01 09:46:51;;;;;;;57.57;2.33;;;;;;;;;;5091550;28;20452;-71
2022/05/01 09:49:20;;;;;;;57.60;2.80;;;;;;;;;;5090556;28;20530;-71
2022/05/01 09:51:48;;;;;;;57.90;2.90;;;;;;;;;;5085897;28;20449;-71
2022/05/01 09:54:22;;;;;;;57.67;2.30;;;;;;;;;;5071039;28;20475;-72
2022/05/01 09:56:49;;;;;;;56.90;2.10;;;;;;;;;;5070952;28;20450;-72
2022/05/01 09:59:17;;;;;;;57.60;2.30;;;;;;;;;;5070667;28;20573;-71
2022/05/01 10:01:55;;;;;;;57.43;2.47;;;;;;;;;;5071524;28;20541;-71
2022/05/01 10:04:25;;;;;;;57.60;2.60;;;;;;;;;;5071423;28;20503;-71
2022/05/01 10:06:53;;;;;;;57.43;2.20;;;;;;;;;;5070862;28;21037;-71
2022/05/01 10:09:22;;;;;;;57.83;2.27;;;;;;;;;;5069952;28;20466;-72
2022/05/01 10:11:50;;;;;;;57.47;2.03;;;;;;;;;;5070787;28;20458;-71
2022/05/01 10:14:20;;;;;;;57.87;2.57;;;;;;;;;;5070688;28;20895;-71
2022/05/01 10:16:47;;;;;;;57.53;2.20;;;;;;;;;;5070725;28;20445;-71
2022/05/01 10:19:16;;;;;;;58.00;3.20;;;;;;;;;;5070163;28;21041;-72
2022/05/01 10:21:46;;;;;;;57.57;2.30;;;;;;;;;;5071635;28;20457;-71
2022/05/01 10:24:13;;;;;;;57.63;2.40;;;;;;;;;;5068727;28;20808;-71
2022/05/01 10:26:43;;;;;;;57.63;2.20;;;;;;;;;;5071183;28;20534;-72
2022/05/01 10:29:25;;;;;;;57.70;2.50;;;;;;;;;;5069864;28;20473;-71
2022/05/01 10:35:08;;;;;;;57.87;2.77;;;;;;;;;;5070267;28;20482;-71
2022/05/01 10:37:51;;;;;;;57.53;2.27;;;;;;;;;;5073696;28;20460;-71
2022/05/01 10:40:18;;;;;;;57.27;2.30;;;;;;;;;;5074511;28;20474;-71
2022/05/01 10:42:48;;;;;;;57.80;2.40;;;;;;;;;;5075085;28;20453;-71
2022/05/01 10:45:36;;;;;;;57.80;2.30;;;;;;;;;;5074689;28;20447;-71
2022/05/01 10:48:11;;;;;;;57.90;2.80;;;;;;;;;;5069037;28;20498;-72
2022/05/01 10:50:40;;;;;;;57.80;2.80;;;;;;;;;;5073961;28;20486;-71
2022/05/01 10:53:13;;;;;;;57.43;2.37;;;;;;;;;;5073980;28;21018;-72
2022/05/01 10:55:44;;;;;;;58.10;3.30;;;;;;;;;;5070881;28;21323;-72
2022/05/01 10:58:22;;;;;;;57.67;2.63;;;;;;;;;;5073122;28;20446;-71
2022/05/01 11:00:50;;;;;;;57.23;2.07;;;;;;;;;;5074135;28;20545;-71
2022/05/01 11:03:24;;;;;;;57.90;2.40;;;;;;;;;;5093314;28;20443;-71
2022/05/01 11:05:55;;;;;;;57.90;2.47;;;;;;;;;;5094801;28;20464;-71
2022/05/01 11:08:25;;;;;;;57.67;2.30;;;;;;;;;;5093441;28;20947;-71
2022/05/01 11:10:53;;;;;;;57.53;2.60;;;;;;;;;;5094018;28;20469;-71
2022/05/01 11:13:20;;;;;;;57.60;2.10;;;;;;;;;;5094070;28;20512;-71
2022/05/01 11:15:49;;;;;;;57.73;2.30;;;;;;;;;;5093753;28;20585;-71
2022/05/01 11:18:17;;;;;;;57.53;2.20;;;;;;;;;;5093038;28;20506;-71
2022/05/01 11:20:44;;;;;;;57.70;3.13;;;;;;;;;;5094128;28;20518;-71
2022/05/01 11:23:33;;;;;;;57.90;3.13;;;;;;;;;;5094339;28;20475;-71
2022/05/01 11:26:07;;;;;;;57.27;2.10;;;;;;;;;;5093385;28;20458;-71
2022/05/01 11:28:44;;;;;;;57.90;2.50;;;;;;;;;;5082255;28;20458;-71
2022/05/01 11:31:30;;;;;;;57.70;2.17;;;;;;;;;;5073305;28;20458;-71
2022/05/01 11:34:15;;;;;;;57.60;2.30;;;;;;;;;;5072721;28;20527;-71
2022/05/01 11:36:51;;;;;;;57.67;2.20;;;;;;;;;;5072942;28;20488;-74
2022/05/01 11:39:20;;;;;;;57.80;2.20;;;;;;;;;;5072190;28;20476;-71
2022/05/01 11:41:51;;;;;;;57.27;2.10;;;;;;;;;;5073807;28;20881;-72
2022/05/01 11:44:22;;;;;;;57.33;2.20;;;;;;;;;;5073379;28;20454;-72
2022/05/01 11:46:51;;;;;;;57.63;2.10;;;;;;;;;;5073642;28;20536;-72
2022/05/01 11:49:18;;;;;;;57.50;2.50;;;;;;;;;;5072403;28;21086;-73
2022/05/01 11:51:47;;;;;;;57.57;2.40;;;;;;;;;;5073109;28;20975;-73
2022/05/01 11:54:15;;;;;;;57.67;2.43;;;;;;;;;;5072575;28;20971;-73
2022/05/01 12:02:28;;;;;;;57.73;2.97;;;;;;;;;;5072821;28;20497;-73
2022/05/01 12:04:59;;;;;;;57.27;2.30;;;;;;;;;;5073146;28;20465;-73
2022/05/01 12:07:26;;;;;;;57.07;2.17;;;;;;;;;;5072773;28;20817;-73
2022/05/01 12:09:53;;;;;;;57.87;2.13;;;;;;;;;;5072418;28;20556;-73
2022/05/01 12:12:22;;;;;;;57.90;2.50;;;;;;;;;;5072735;28;20443;-73
2022/05/01 12:14:49;;;;;;;57.47;2.17;;;;;;;;;;5072233;28;20448;-73
2022/05/01 12:17:18;;;;;;;57.40;2.10;;;;;;;;;;5071647;28;20449;-73
2022/05/01 12:19:46;;;;;;;57.43;2.00;;;;;;;;;;5072902;28;20468;-74
2022/05/01 12:22:15;;;;;;;57.50;2.53;;;;;;;;;;5072521;28;20811;-74
2022/05/01 12:24:43;;;;;;;57.37;1.90;;;;;;;;;;5073214;28;20815;-74
2022/05/01 12:27:11;;;;;;;57.53;2.00;;;;;;;;;;5072251;28;20440;-74
2022/05/01 12:29:41;;;;;;;57.60;2.43;;;;;;;;;;5072373;28;20499;-74
2022/05/01 12:32:08;;;;;;;58.10;3.17;;;;;;;;;;5070473;28;20443;-74
2022/05/01 12:34:38;;;;;;;57.13;1.80;;;;;;;;;;5091564;28;20865;-73
2022/05/01 12:37:05;;;;;;;57.07;1.80;;;;;;;;;;5091759;28;20453;-73
2022/05/01 12:39:33;;;;;;;57.43;2.43;;;;;;;;;;5092280;28;20505;-73
2022/05/01 12:45:08;;;;;;;57.70;2.30;;;;;;;;;;5092995;28;20511;-75
2022/05/01 12:47:38;;;;;;;57.80;2.60;;;;;;;;;;5092206;28;20446;-75
2022/05/01 12:50:06;;;;;;;57.70;2.00;;;;;;;;;;5092024;28;20474;-75
2022/05/01 12:52:34;;;;;;;57.90;2.00;;;;;;;;;;5092644;28;20805;-75
2022/05/01 12:55:08;;;;;;;57.47;2.10;;;;;;;;;;5091133;28;20451;-75
2022/05/01 12:57:36;;;;;;;58.00;2.80;;;;;;;;;;5091190;28;20457;-74
2022/05/01 13:00:04;;;;;;;57.07;2.07;;;;;;;;;;5092398;28;20549;-75
2022/05/01 13:02:31;;;;;;;57.97;2.50;;;;;;;;;;5091845;28;20446;-75
2022/05/01 13:05:03;;;;;;;57.53;2.00;;;;;;;;;;5080043;28;20483;-75
2022/05/01 13:07:30;;;;;;;57.37;2.20;;;;;;;;;;5071612;28;20585;-75
2022/05/01 13:09:57;;;;;;;57.90;2.77;;;;;;;;;;5071274;28;20528;-75
2022/05/01 13:12:30;;;;;;;57.80;2.00;;;;;;;;;;5071718;28;20498;-75
2022/05/01 13:14:58;;;;;;;58.30;3.23;;;;;;;;;;5070843;28;20451;-75
2022/05/01 13:17:27;;;;;;;57.80;2.20;;;;;;;;;;5070599;28;20839;-75
2022/05/01 13:19:55;;;;;;;57.97;3.80;;;;;;;;;;5070813;28;20474;-75
2022/05/01 13:22:23;;;;;;;57.40;2.00;;;;;;;;;;5071381;28;20450;-75
2022/05/01 13:24:53;;;;;;;57.63;2.07;;;;;;;;;;5071833;28;20892;-75
2022/05/01 13:27:21;;;;;;;57.53;2.37;;;;;;;;;;5071283;28;20485;-76
2022/05/01 13:29:48;;;;;;;57.67;2.20;;;;;;;;;;5071600;28;20817;-76
2022/05/01 13:32:17;;;;;;;57.37;2.50;;;;;;;;;;5070949;28;20451;-75
2022/05/01 13:34:44;;;;;;;57.60;1.77;;;;;;;;;;5069788;28;20943;-76
2022/05/01 13:37:12;;;;;;;57.07;1.70;;;;;;;;;;5081724;28;20450;-75
2022/05/01 13:45:11;;;;;;;57.70;3.00;;;;;;;;;;5092091;28;20418;-75
2022/05/01 13:47:38;;;;;;;57.10;1.70;;;;;;;;;;5091019;28;20569;-74
2022/05/01 13:50:06;;;;;;;57.67;2.90;;;;;;;;;;5090837;28;20479;-74
2022/05/01 13:52:34;;;;;;;57.50;2.50;;;;;;;;;;5091541;28;20449;-74
2022/05/01 13:55:03;;;;;;;57.27;1.80;;;;;;;;;;5091359;28;20500;-74
2022/05/01 13:57:31;;;;;;;57.30;2.00;;;;;;;;;;5089925;28;20533;-74
2022/05/01 13:59:58;;;;;;;57.67;2.40;;;;;;;;;;5090521;28;20771;-74
2022/05/01 14:02:25;;;;;;;57.50;2.20;;;;;;;;;;5090768;28;20446;-74
2022/05/01 14:04:54;;;;;;;57.23;1.83;;;;;;;;;;5091679;28;21016;-74
2022/05/01 14:07:21;;;;;;;57.50;2.10;;;;;;;;;;5092155;28;20490;-74
2022/05/01 14:09:48;;;;;;;57.17;2.03;;;;;;;;;;5092231;28;21011;-71
2022/05/01 14:12:16;;;;;;;57.33;1.70;;;;;;;;;;5095018;28;20561;-73
2022/05/01 14:14:45;;;;;;;57.30;1.70;;;;;;;;;;5095349;28;20459;-74
2022/05/01 14:17:14;;;;;;;56.97;1.73;;;;;;;;;;5094156;28;20458;-72
2022/05/01 14:19:41;;;;;;;57.23;2.07;;;;;;;;;;5095005;28;20488;-73
2022/05/01 14:22:09;;;;;;;57.03;1.80;;;;;;;;;;5094778;28;20442;-73
2022/05/01 14:24:36;;;;;;;57.37;2.10;;;;;;;;;;5092424;28;20818;-73
2022/05/01 14:27:04;;;;;;;57.27;2.00;;;;;;;;;;5095349;28;20492;-74
2022/05/01 14:29:32;;;;;;;57.17;1.70;;;;;;;;;;5094686;28;20470;-73
2022/05/01 14:32:02;;;;;;;56.97;1.70;;;;;;;;;;5095401;28;20539;-73
2022/05/01 14:34:33;;;;;;;57.40;2.77;;;;;;;;;;5095592;28;20453;-73
2022/05/01 14:37:01;;;;;;;57.40;1.70;;;;;;;;;;5094893;28;20546;-74
2022/05/01 14:39:29;;;;;;;57.70;2.43;;;;;;;;;;5094524;28;20573;-73
2022/05/01 14:41:57;;;;;;;57.17;2.00;;;;;;;;;;5095083;28;20494;-73
2022/05/01 14:44:32;;;;;;;57.57;2.70;;;;;;;;;;5094933;28;20447;-73
2022/05/01 14:47:01;;;;;;;57.57;1.93;;;;;;;;;;5095295;28;20582;-73
2022/05/01 14:49:36;;;;;;;57.50;2.77;;;;;;;;;;5094252;28;20473;-73
2022/05/01 14:52:03;;;;;;;57.20;1.70;;;;;;;;;;5095160;28;20445;-73
2022/05/01 14:54:33;;;;;;;57.47;1.80;;;;;;;;;;5094785;28;20720;-73
2022/05/01 14:57:02;;;;;;;57.23;1.80;;;;;;;;;;5090502;28;20541;-73
2022/05/01 15:07:53;;;;;;;57.20;1.70;;;;;;;;;;5093668;28;20520;-73
2022/05/01 15:10:21;;;;;;;57.17;1.80;;;;;;;;;;5094398;28;20468;-73
2022/05/01 15:12:48;;;;;;;57.37;1.70;;;;;;;;;;5093816;28;20859;-73
2022/05/01 15:15:16;;;;;;;57.17;2.57;;;;;;;;;;5093757;28;20973;-73
2022/05/01 15:17:48;;;;;;;57.17;1.93;;;;;;;;;;5092823;28;20454;-73
2022/05/01 15:20:20;;;;;;;57.17;1.70;;;;;;;;;;5092842;28;20473;-73
2022/05/01 15:22:51;;;;;;;57.20;1.70;;;;;;;;;;5093789;28;20489;-73